Daglege Rapportar

Klikk her for oppdatering!


Detaljar i dag

19/4/21
Time         Wind Dir   Wind Spd  Wind Gust   Humidity       Temp  Raw Barom   Tot Rain Temp Out H Temp Out L  DailyRain   HourRain
                            mps        mps          %         C         mb         mm         C         C         mm         mm
0:00               11          1          2         58        8.1    1031.33     248.40        8.1        8.1       0.00       0.00
1:00              355          1          2         58        7.6    1031.36     248.40        8.3        7.5       0.00       0.00
2:00                9          1          2         61        6.9    1031.50     248.40        8.3        6.9       0.00       0.00
3:00               12          0          3         57        7.7    1031.50     248.40        8.3        6.5       0.00       0.00
4:00               17          0          2         64        5.9    1031.60     248.40        8.3        5.8       0.00       0.00

 


Detaljar i gr

18/4/21
Time         Wind Dir   Wind Spd  Wind Gust   Humidity       Temp  Raw Barom   Tot Rain Temp Out H Temp Out L  DailyRain   HourRain
                            mps        mps          %         C         mb         mm         C         C         mm         mm
0:00              360          0          2         61        7.2    1034.98     248.40        7.2        7.2       0.00       0.00
1:00                9          0          4         55        8.2    1034.88     248.40        8.7        6.9       0.00       0.00
2:00               89          0          4         55        8.1    1034.64     248.40        8.7        6.9       0.00       0.00
3:00              125          0          3         57        7.3    1034.51     248.40        8.7        6.9       0.00       0.00
4:00              313          0          3         57        7.2    1034.24     248.40        8.7        6.7       0.00       0.00
5:00               40          1          3         57        6.9    1034.10     248.40        8.7        6.3       0.00       0.00
6:00              355          0          2         66        5.2    1033.93     248.40        8.7        5.2       0.00       0.00
7:00              346          1          2         70        4.6    1033.90     248.40        8.7        4.5       0.00       0.00
8:00              331          1          2         70        5.1    1033.83     248.40        8.7        4.5       0.00       0.00
9:00              311          0          2         64        7.7    1033.73     248.40        8.7        4.5       0.00       0.00
10:00             351          0          2         60        9.4    1033.39     248.40        9.4        4.5       0.00       0.00
11:00             155          0          2         67        9.1    1033.29     248.40        9.4        4.5       0.00       0.00
12:00             321          1          2         66        9.4    1032.88     248.40        9.9        4.5       0.00       0.00
13:00             160          1          4         59       11.2    1032.48     248.40       11.2        4.5       0.00       0.00
14:00             105          1          4         53       11.6    1031.87     248.40       11.7        4.5       0.00       0.00
15:00             156          1          4         46       13.3    1031.50     248.40       13.3        4.5       0.00       0.00
16:00             167          0          2         45       13.1    1030.86     248.40       13.6        4.5       0.00       0.00
17:00             176          0          2         44       14.1    1030.69     248.40       14.6        4.5       0.00       0.00
18:00             148          0          1         46       13.2    1030.49     248.40       14.6        4.5       0.00       0.00
19:00             148          0          1         44       13.2    1030.55     248.40       14.6        4.5       0.00       0.00
20:00             360          0          1         46       12.4    1030.79     248.40       14.6        4.5       0.00       0.00
21:00             360          2          2         47       11.4    1030.82     248.40       14.6        4.5       0.00       0.00
22:00             360          0          1         47       10.8    1031.09     248.40       14.6        4.5       0.00       0.00
23:00             360          1          2         52        9.7    1031.57     248.40       14.6        4.5       0.00       0.00